Cut Bank, MT

6:32 PM MDT on June 02, 2015 (GMT -0600)
Cut Bank, MT - North-West Side of Town | | Change Station
CLOSE
Current Station
Personal Weather Station
Location: Cut Bank, MT
Elevation: 3757 ft
Nearby Weather Stations

Elev 3757 ft 48.64 °N, 112.33 °W | Updated 15 seconds ago

Overcast
Overcast
53.4 °F
Feels Like 53.4 °F
N
7.8
Wind Variable Wind from East
Gusts 9.9 mph

Today
High -- | Low -- °F
--% Chance of Precip.
Yesterday
High -- | Low -- °F
Precip. -- in
5:30 AM 9:24 PM
Full, 100% visible
Pressure 29.94 in
Visibility 10.0 miles
Clouds Scattered Clouds 1600 ft
Mostly Cloudy 2200 ft
Overcast 2900 ft
Dew Point 48 °F
Humidity 81%
Rainfall 1.36 in
Snow Depth Not available.
UV 1 out of 12
Pollen .80 out of 12
Air Quality Not available.
Flu Activity Sporadic
METAR KCTB 022356Z AUTO 08010KT 10SM SCT016 BKN022 OVC029 12/08 A2994 RMK AO2 SLP136 T01170078 10122 20100 51003

More Conditions Fewer Conditions

Pressure 29.94 in
Visibility 10.0 miles
Clouds Scattered Clouds 1600 ft
Mostly Cloudy 2200 ft
Overcast 2900 ft
Dew Point 48 °F
Humidity 81%
Rainfall 1.36 in
Snow Depth Not available.
UV 1 out of 12
Pollen .80 out of 12
Air Quality Not available.
Flu Activity Sporadic
METAR KCTB 022356Z AUTO 08010KT 10SM SCT016 BKN022 OVC029 12/08 A2994 RMK AO2 SLP136 T01170078 10122 20100 51003

More Conditions Fewer Conditions

10-Day Weather Forecast

×

Almanac

Astronomy

Jun. 02, 2015 Rise Set
Actual Time
Civil Twilight
Nautical Twilight
Astronomical Twilight
Moon
Length of Visible Light
Length of Day
Tomorrow will be .
, % of the Moon is Illuminated

Today's Extremes

State Highs State Lows

Community

WunderPhotos

Upload Photos

1,826,078 photos uploaded!

WunderBlogs® & News

Nearby

Air Quality

  Air Quality AQ Index Pollutant
Not available.

Snow Depth

Station Depth Elevation

Earthquake Activity

City Distance Mag. Time & Date
Minimum magnitude displayed is 2.5.

Coastal Water Temperatures

Place Temperature

Stations

Nearby Weather Stations

Station Location Temp. Windchill Dew Point Humidity Wind Precip. Elev Updated Type